Time;durP1;ratioP1;P1;durP2;ratioP2;P2;SDS_P1;SDS_P2;PMS_P1;PMS_P2;Temp;Humidity;BMP_temperature;BMP_pressure;BME280_temperature;BME280_humidity;BME280_pressure;Samples;Min_cycle;Max_cycle;Signal;HPM_P1;HPM_P2
2022/05/03 00:01:51;;;;;;;22.2;25.1;;;;;;;-133;83.1;78530;;;;
2022/05/03 00:12:51;;;;;;;22;25.1;;;;;;;-133;88.7;78550;;;;
2022/05/03 00:22:51;;;;;;;22;25.1;;;;;;;-133;88.2;78570;;;;
2022/05/03 00:32:51;;;;;;;22;25.1;;;;;;;-133;88.9;78580;;;;
2022/05/03 00:43:51;;;;;;;24.8;28;;;;;;;-133;88.4;78580;;;;
2022/05/03 00:53:51;;;;;;;24.8;28;;;;;;;-133;89.7;78580;;;;
2022/05/03 01:04:51;;;;;;;22;25.6;;;;;;;-133;89.5;78580;;;;
2022/05/03 01:15:51;;;;;;;22;25.6;;;;;;;-133;90;78590;;;;
2022/05/03 01:25:51;;;;;;;22;25.6;;;;;;;-133;89.7;78620;;;;
2022/05/03 01:35:51;;;;;;;18.8;22;;;;;;;-133;89.4;78640;;;;
2022/05/03 01:46:51;;;;;;;18.8;22;;;;;;;-133;93.1;78650;;;;
2022/05/03 01:56:51;;;;;;;18.8;22;;;;;;;-133;92.7;78650;;;;
2022/05/03 02:07:51;;;;;;;19.8;22.8;;;;;;;-133;93.3;78640;;;;
2022/05/03 02:17:51;;;;;;;19.8;22.8;;;;;;;-133;93.5;78610;;;;
2022/05/03 02:27:51;;;;;;;19.8;22.8;;;;;;;-133;92.9;78580;;;;
2022/05/03 02:38:51;;;;;;;19.1;23.2;;;;;;;-133;92.3;78580;;;;
2022/05/03 02:48:51;;;;;;;19.1;23.2;;;;;;;-133;91.7;78540;;;;
2022/05/03 03:09:51;;;;;;;17.1;19.9;;;;;;;-133;90.4;78530;;;;
2022/05/03 03:20:51;;;;;;;17.1;19.9;;;;;;;-133;90;78530;;;;
2022/05/03 03:31:51;;;;;;;17.1;19.9;;;;;;;-133;90.8;78540;;;;
2022/05/03 03:41:51;;;;;;;21.7;24.6;;;;;;;-133;91.3;78520;;;;
2022/05/03 03:52:51;;;;;;;21.7;24.6;;;;;;;-133;90.5;78500;;;;
2022/05/03 04:03:51;;;;;;;24.8;28.3;;;;;;;-133;90.6;78470;;;;
2022/05/03 04:13:51;;;;;;;24.8;28.3;;;;;;;-133;92.2;78420;;;;
2022/05/03 04:24:52;;;;;;;24.8;28.3;;;;;;;-133;89.6;78400;;;;
2022/05/03 04:34:51;;;;;;;20.2;24;;;;;;;-133;89.4;78370;;;;
2022/05/03 04:45:51;;;;;;;20.2;24;;;;;;;-133;89;78340;;;;
2022/05/03 04:56:51;;;;;;;20.2;24;;;;;;;-133;88.2;78320;;;;
2022/05/03 05:06:51;;;;;;;18.9;23.1;;;;;;;-133;87.4;78260;;;;
2022/05/03 05:17:51;;;;;;;18.9;23.1;;;;;;;-133;84.2;78200;;;;
2022/05/03 05:27:51;;;;;;;18.9;23.1;;;;;;;-133;85.4;78120;;;;
2022/05/03 05:38:51;;;;;;;18.4;20.4;;;;;;;-133;83.6;78110;;;;
2022/05/03 05:48:53;;;;;;;18.4;20.4;;;;;;;-133;83.5;78090;;;;
2022/05/03 05:58:51;;;;;;;18.4;20.4;;;;;;;-133;81.2;78000;;;;
2022/05/03 06:08:51;;;;;;;16.4;19.3;;;;;;;-133;75.8;77960;;;;
2022/05/03 06:19:51;;;;;;;16.4;19.3;;;;;;;-133;73;77890;;;;
2022/05/03 06:29:51;;;;;;;16.4;19.3;;;;;;;-133;70.8;77800;;;;
2022/05/03 06:39:51;;;;;;;13.4;17.8;;;;;;;-133;68;77750;;;;
2022/05/03 06:49:51;;;;;;;13.4;17.8;;;;;;;-133;64.6;77740;;;;
2022/05/03 07:00:51;;;;;;;13.4;17.8;;;;;;;-133;64.2;77710;;;;
2022/05/03 07:10:51;;;;;;;10.9;13.1;;;;;;;-133;63.6;77610;;;;
2022/05/03 07:22:55;;;;;;;10.9;13.1;;;;;;;-133;60.2;77530;;;;
2022/05/03 07:31:51;;;;;;;10.9;13.1;;;;;;;-133;59.3;77480;;;;
2022/05/03 07:42:51;;;;;;;12.3;14.2;;;;;;;-133;53.9;77410;;;;
2022/05/03 07:52:51;;;;;;;12.3;14.2;;;;;;;-133;54.5;77290;;;;
2022/05/03 08:03:51;;;;;;;9.3;11.1;;;;;;;-133;51.8;77270;;;;
2022/05/03 08:13:52;;;;;;;9.3;11.1;;;;;;;-133;55.6;77360;;;;
2022/05/03 08:24:51;;;;;;;9.3;11.1;;;;;;;-133;53.6;77330;;;;
2022/05/03 08:35:51;;;;;;;11.1;13;;;;;;;-133;55.7;77280;;;;
2022/05/03 08:45:51;;;;;;;11.1;13;;;;;;;-133;53.4;77270;;;;
2022/05/03 08:56:51;;;;;;;11.1;13;;;;;;;-133;52.9;77270;;;;
2022/05/03 09:06:51;;;;;;;12.1;17.1;;;;;;;-133;53.2;77250;;;;
2022/05/03 09:16:51;;;;;;;12.1;17.1;;;;;;;-133;52.7;77220;;;;
2022/05/03 09:27:51;;;;;;;12.1;17.1;;;;;;;-133;49.9;77180;;;;
2022/05/03 09:37:51;;;;;;;11.7;15.3;;;;;;;-133;46.2;77090;;;;
2022/05/03 09:47:52;;;;;;;11.7;15.3;;;;;;;-133;43.5;77030;;;;
2022/05/03 09:58:51;;;;;;;11.7;15.3;;;;;;;-133;40.3;76960;;;;
2022/05/03 10:08:51;;;;;;;8.3;11.3;;;;;;;-133;40.6;76950;;;;
2022/05/03 10:20:55;;;;;;;8.3;11.3;;;;;;;-133;36.1;76870;;;;
2022/05/03 10:30:51;;;;;;;8.3;11.3;;;;;;;-133;37;76840;;;;
2022/05/03 10:40:51;;;;;;;7.9;11.3;;;;;;;-133;41.8;76920;;;;
2022/05/03 10:51:51;;;;;;;7.9;11.3;;;;;;;-133;43.8;77060;;;;
2022/05/03 11:01:51;;;;;;;7.9;11.3;;;;;;;-133;59.9;77340;;;;
2022/05/03 11:11:52;;;;;;;8.4;13.4;;;;;;;-133;62.9;77300;;;;
2022/05/03 11:22:51;;;;;;;8.4;13.4;;;;;;;-133;52.4;77200;;;;
2022/05/03 11:32:51;;;;;;;8.4;13.4;;;;;;;-133;50.7;77030;;;;
2022/05/03 11:42:51;;;;;;;8.2;10.2;;;;;;;-133;44.6;76970;;;;
2022/05/03 12:03:52;;;;;;;9;11.8;;;;;;;-133;40.7;76990;;;;
2022/05/03 12:13:51;;;;;;;9;11.8;;;;;;;-133;44.6;77010;;;;
2022/05/03 12:24:51;;;;;;;9;11.8;;;;;;;-133;43.8;76960;;;;
2022/05/03 12:35:51;;;;;;;9.5;13.4;;;;;;;-133;41.5;76910;;;;
2022/05/03 12:45:51;;;;;;;9.5;13.4;;;;;;;-133;41.5;76970;;;;
2022/05/03 12:55:51;;;;;;;9.5;13.4;;;;;;;-133;41.6;76920;;;;
2022/05/03 13:06:52;;;;;;;11.6;16.8;;;;;;;-133;41.4;76810;;;;
2022/05/03 13:17:51;;;;;;;11.6;16.8;;;;;;;-133;40.1;76810;;;;
2022/05/03 13:27:53;;;;;;;11.6;16.8;;;;;;;-133;39.6;76880;;;;
2022/05/03 13:49:51;;;;;;;8.8;13;;;;;;;-133;40.3;76850;;;;
2022/05/03 13:59:51;;;;;;;8.8;13;;;;;;;-133;40.5;76900;;;;
2022/05/03 14:10:51;;;;;;;9.5;13.1;;;;;;;-133;43.4;76960;;;;
2022/05/03 14:21:52;;;;;;;9.5;13.1;;;;;;;-133;43.9;76880;;;;
2022/05/03 14:32:51;;;;;;;9.5;13.1;;;;;;;-133;43.2;76850;;;;
2022/05/03 14:42:51;;;;;;;7.6;10;;;;;;;-133;44.3;76910;;;;
2022/05/03 14:53:51;;;;;;;7.6;10;;;;;;;-133;41.7;76880;;;;
2022/05/03 15:03:51;;;;;;;6.7;10.4;;;;;;;-133;42.1;76950;;;;
2022/05/03 15:14:51;;;;;;;6.7;10.4;;;;;;;-133;43.7;77000;;;;
2022/05/03 15:24:51;;;;;;;6.7;10.4;;;;;;;-133;45.1;77040;;;;
2022/05/03 15:35:51;;;;;;;6.4;9;;;;;;;-133;45.6;76990;;;;
2022/05/03 15:45:52;;;;;;;6.4;9;;;;;;;-133;44.5;76980;;;;
2022/05/03 15:55:51;;;;;;;6.4;9;;;;;;;-133;39.3;76790;;;;
2022/05/03 16:06:51;;;;;;;6.2;9.1;;;;;;;-133;39;76820;;;;
2022/05/03 16:16:51;;;;;;;6.2;9.1;;;;;;;-133;40.1;76950;;;;
2022/05/03 16:26:51;;;;;;;6.2;9.1;;;;;;;-133;43;77030;;;;
2022/05/03 16:47:51;;;;;;;19.2;26.4;;;;;;;-133;47.6;77180;;;;
2022/05/03 16:58:52;;;;;;;19.2;26.4;;;;;;;-133;48.4;77210;;;;
2022/05/03 17:08:51;;;;;;;37.6;56.7;;;;;;;-133;49.3;77280;;;;
2022/05/03 17:19:51;;;;;;;37.6;56.7;;;;;;;-133;50.3;77320;;;;
2022/05/03 17:29:51;;;;;;;37.6;56.7;;;;;;;-133;50.2;77350;;;;
2022/05/03 17:40:54;;;;;;;10.9;16.8;;;;;;;-133;53.3;77410;;;;
2022/05/03 18:02:51;;;;;;;10.9;16.8;;;;;;;-133;53.5;77490;;;;
2022/05/03 18:12:51;;;;;;;27.4;33.6;;;;;;;-133;54.1;77520;;;;
2022/05/03 18:23:52;;;;;;;27.4;33.6;;;;;;;-133;54.4;77560;;;;
2022/05/03 18:34:51;;;;;;;13.9;18.2;;;;;;;-133;56;77600;;;;
2022/05/03 18:44:51;;;;;;;13.9;18.2;;;;;;;-133;56.8;77620;;;;
2022/05/03 18:55:51;;;;;;;13.9;18.2;;;;;;;-133;57;77650;;;;
2022/05/03 19:06:51;;;;;;;5.5;7.9;;;;;;;-133;57.7;77670;;;;
2022/05/03 19:16:52;;;;;;;5.5;7.9;;;;;;;-133;60.2;77710;;;;
2022/05/03 19:37:51;;;;;;;7.1;11.3;;;;;;;-133;65.5;77740;;;;
2022/05/03 19:48:51;;;;;;;7.1;11.3;;;;;;;-133;66.8;77750;;;;
2022/05/03 19:59:51;;;;;;;7.1;11.3;;;;;;;-133;69.8;77780;;;;
2022/05/03 20:10:51;;;;;;;8.6;10.1;;;;;;;-133;71.5;77810;;;;
2022/05/03 20:21:51;;;;;;;8.6;10.1;;;;;;;-133;71.7;77840;;;;
2022/05/03 20:31:51;;;;;;;8.6;10.1;;;;;;;-133;71.8;77870;;;;
2022/05/03 20:41:52;;;;;;;17.5;21.7;;;;;;;-133;73.6;77910;;;;
2022/05/03 20:52:51;;;;;;;17.5;21.7;;;;;;;-133;74.6;77930;;;;
2022/05/03 21:02:51;;;;;;;17.5;21.7;;;;;;;-133;75;77960;;;;
2022/05/03 21:12:51;;;;;;;19.2;23.4;;;;;;;-133;74.7;77990;;;;
2022/05/03 21:23:53;;;;;;;19.2;23.4;;;;;;;-133;75.8;78020;;;;
2022/05/03 21:34:52;;;;;;;17.6;21.7;;;;;;;-133;75.8;78050;;;;
2022/05/03 21:44:51;;;;;;;17.6;21.7;;;;;;;-133;77.6;78070;;;;
2022/05/03 21:54:51;;;;;;;17.6;21.7;;;;;;;-133;77;78090;;;;
2022/05/03 22:05:52;;;;;;;16.1;20.9;;;;;;;-133;78.6;78110;;;;
2022/05/03 22:16:51;;;;;;;16.1;20.9;;;;;;;-133;81.3;78110;;;;
2022/05/03 22:27:51;;;;;;;16.1;20.9;;;;;;;-133;80.9;78100;;;;
2022/05/03 22:37:51;;;;;;;13.8;15.9;;;;;;;-133;80.1;78120;;;;
2022/05/03 22:48:51;;;;;;;13.8;15.9;;;;;;;-133;81.8;78150;;;;
2022/05/03 22:58:52;;;;;;;13.8;15.9;;;;;;;-133;82.4;78190;;;;
2022/05/03 23:09:51;;;;;;;21.2;25.9;;;;;;;-133;84.8;78230;;;;
2022/05/03 23:20:51;;;;;;;21.2;25.9;;;;;;;-133;87.8;78250;;;;
2022/05/03 23:30:52;;;;;;;21.2;25.9;;;;;;;-133;86.9;78260;;;;
2022/05/03 23:41:52;;;;;;;15.6;19.6;;;;;;;-133;88.9;78260;;;;
2022/05/03 23:51:52;;;;;;;15.6;19.6;;;;;;;-133;87.3;78290;;;;
